Groveport, Ohio
Current Conditions -  °F | °C
As of 3:35 PM on Monday 24 Nov 2014 (Local Time) from KLCK Reporting Station
Broken Clouds Broken Clouds  
Wind Chill: 51°   Ceiling: 3400
Heat Index: 51°   Visibility: 10mi
Dew Point: 37°   Wind: 29mph
Humidity: 61%   Direction: 240°WSW
Pressure: 29.62"   Gusts: 43mph
Location:  39.86°N, 82.9°W
Report Text: KLCK 242035Z AUTO 24025G37KT 10SM BKN034 BKN041 10/03 A2962 RMK AO2 T01030030
Loading
Personal Weather Stations






























Interactive Weather Map New forecast layout! Learn more

10-Day Weather Forecast

Advertisements
Track Severe Weather on mobile